OMAA Airport Information

Runway Information
Runway 13L Length 13452 ft width 197 ft
Elevation 62 ft Threshold 0 ft Heading 128
Runway 31R Length 13452 ft Width 197 ft
Elevation 72 ft Threshold 0 ft Heading 308
Runway 13R Length 13452 ft width 148 ft
Elevation 82 ft Threshold 0 ft Heading 128
Runway 31L Length 13452 ft Width 148 ft
Elevation 88 ft Threshold 0 ft Heading 308
Airport Frequencies
Type APP Name RDR Frequency 124.4 MHZ
Type ATIS Name ATIS Frequency 125.1 MHZ
Type TWR Name TWR Frequency 119.2 MHZ
Airport Navaids
Type VOR-DME Name Abu Dhabi Frequency 113000 KHZ
Airport Weather Information & NOTAM
ADDS - METARS form results

(0135 UTC 19 August 2018)
 
METAR text: OMAA 190100Z 07005KT 040V130 5000 HZ SCT013 32/29 Q0996 BECMG 3000 BKN008
Conditions at: OMAA (ABU DHABI INTL , AE) observed 0100 UTC 19 August 2018
Temperature: 32.0°C (90°F)
Dewpoint: 29.0°C (84°F) [RH = 84%]
Pressure (altimeter): 29.41 inches Hg (996.0 mb)
Winds: from the ENE (70 degrees) at 6 MPH (5 knots; 2.6 m/s)
Visibility: 3 miles (5 km)
Ceiling: at least 12,000 feet AGL
Clouds: scattered clouds at 1300 feet AGL
Weather: HZ  (haze)